Time;durP1;ratioP1;P1;durP2;ratioP2;P2;SDS_P1;SDS_P2;PMS_P1;PMS_P2;Temp;Humidity;BMP_temperature;BMP_pressure;BME280_temperature;BME280_humidity;BME280_pressure;Samples;Min_cycle;Max_cycle;Signal;HPM_P1;HPM_P2
2022/04/18 00:02:23;;;;;;;11.80;9.23;;;;;;;7.55;45.80;100990.88;5078143;28;20547;-70
2022/04/18 00:04:51;;;;;;;11.17;8.43;;;;;;;7.35;46.62;100989.56;5078540;28;20475;-69
2022/04/18 00:07:18;;;;;;;13.20;9.63;;;;;;;7.42;46.36;100988.19;5076843;28;20482;-69
2022/04/18 00:09:45;;;;;;;14.10;8.93;;;;;;;7.41;46.13;100988.28;5078594;28;20543;-69
2022/04/18 00:12:12;;;;;;;15.13;8.83;;;;;;;7.31;47.04;100980.09;5077434;28;20514;-69
2022/04/18 00:14:39;;;;;;;11.00;8.43;;;;;;;7.24;46.80;100979.63;5077245;28;20486;-69
2022/04/18 00:17:09;;;;;;;12.83;10.00;;;;;;;7.26;46.95;100979.53;5080707;28;20805;-70
2022/04/18 00:19:36;;;;;;;10.50;8.63;;;;;;;7.25;47.01;100977.81;5081343;28;20455;-69
2022/04/18 00:22:04;;;;;;;12.70;9.70;;;;;;;7.30;46.75;100963.25;5081039;28;20518;-68
2022/04/18 00:24:31;;;;;;;13.20;8.60;;;;;;;7.26;47.02;100963.59;5082545;28;20460;-68
2022/04/18 00:26:58;;;;;;;11.77;9.10;;;;;;;7.23;47.12;100967.28;5074434;28;20506;-68
2022/04/18 00:29:24;;;;;;;15.60;9.10;;;;;;;7.17;47.75;100959.72;5081075;28;20507;-68
2022/04/18 00:31:51;;;;;;;14.20;9.80;;;;;;;7.03;48.11;100960.63;5080777;28;20475;-68
2022/04/18 00:34:18;;;;;;;11.20;9.47;;;;;;;7.09;48.43;100957.56;5082531;28;20468;-70
2022/04/18 00:36:44;;;;;;;11.17;9.00;;;;;;;7.09;48.39;100962.03;5080911;28;20475;-68
2022/04/18 00:39:12;;;;;;;13.83;9.37;;;;;;;7.16;48.13;100952.69;5081850;28;20440;-68
2022/04/18 00:41:39;;;;;;;11.07;9.10;;;;;;;7.15;48.18;100957.16;5081475;28;20573;-68
2022/04/18 00:44:06;;;;;;;11.80;8.70;;;;;;;7.01;48.38;100953.69;5082418;28;20432;-70
2022/04/18 00:46:33;;;;;;;11.73;8.63;;;;;;;7.02;48.81;100948.28;5079414;28;20547;-68
2022/04/18 00:48:59;;;;;;;13.00;8.90;;;;;;;6.97;49.08;100945.91;5081225;28;20449;-68
2022/04/18 00:51:27;;;;;;;11.97;9.20;;;;;;;6.99;49.10;100948.47;5080910;28;20517;-68
2022/04/18 00:53:57;;;;;;;14.20;8.73;;;;;;;6.91;49.36;100940.13;5081317;28;20471;-68
2022/04/18 00:56:26;;;;;;;11.60;8.70;;;;;;;6.92;49.96;100940.03;5080438;28;20549;-68
2022/04/18 00:58:53;;;;;;;10.13;8.50;;;;;;;6.74;50.54;100942.09;5082290;28;20440;-68
2022/04/18 01:01:20;;;;;;;13.40;9.87;;;;;;;6.52;53.22;100941.75;5079698;28;20506;-69
2022/04/18 01:03:47;;;;;;;12.07;9.60;;;;;;;6.23;54.51;100941.78;5085773;28;20439;-68
2022/04/18 01:06:15;;;;;;;11.33;10.10;;;;;;;6.08;55.38;100943.59;5101375;28;20478;-68
2022/04/18 01:08:43;;;;;;;12.50;9.03;;;;;;;5.97;56.47;100931.00;5097511;28;20476;-69
2022/04/18 01:11:10;;;;;;;12.10;9.07;;;;;;;5.93;57.36;100934.72;5080537;28;20484;-69
2022/04/18 01:13:42;;;;;;;11.67;9.23;;;;;;;5.85;58.00;100932.56;5082362;28;20444;-69
2022/04/18 01:16:09;;;;;;;12.00;9.43;;;;;;;5.84;58.21;100935.31;5080660;28;20523;-69
2022/04/18 01:18:36;;;;;;;13.13;9.37;;;;;;;5.82;57.76;100932.75;5082256;28;20455;-69
2022/04/18 01:21:04;;;;;;;13.90;9.70;;;;;;;5.76;57.21;100929.59;5080998;28;20997;-69
2022/04/18 01:23:32;;;;;;;13.43;9.40;;;;;;;5.71;56.94;100924.59;5081876;28;20896;-69
2022/04/18 01:29:01;;;;;;;12.37;9.07;;;;;;;5.71;57.00;100923.72;5080653;28;20473;-69
2022/04/18 01:31:29;;;;;;;10.50;8.53;;;;;;;5.64;57.37;100928.53;5080968;28;20498;-69
2022/04/18 01:33:56;;;;;;;17.83;10.13;;;;;;;5.58;57.84;100932.41;5081217;28;20520;-68
2022/04/18 01:36:24;;;;;;;10.97;9.23;;;;;;;5.53;58.01;100920.38;5080755;28;20483;-68
2022/04/18 01:38:50;;;;;;;12.23;8.50;;;;;;;5.52;58.22;100926.63;5081158;28;20467;-68
2022/04/18 01:41:18;;;;;;;13.40;9.20;;;;;;;5.51;58.30;100922.28;5081251;28;20500;-68
2022/04/18 01:43:44;;;;;;;11.50;9.00;;;;;;;5.42;58.43;100919.22;5082017;28;20486;-68
2022/04/18 01:46:11;;;;;;;10.67;8.90;;;;;;;5.35;58.07;100920.53;5080146;28;20488;-69
2022/04/18 01:48:38;;;;;;;15.50;8.97;;;;;;;5.31;58.00;100913.69;5081606;28;20472;-69
2022/04/18 01:51:04;;;;;;;11.43;8.70;;;;;;;5.32;59.75;100919.88;5079998;28;20559;-70
2022/04/18 01:53:32;;;;;;;10.23;8.40;;;;;;;5.41;58.39;100920.16;5081335;28;20519;-70
2022/04/18 01:55:59;;;;;;;12.03;9.33;;;;;;;5.56;57.93;100914.91;5080416;28;20512;-70
2022/04/18 01:58:25;;;;;;;9.93;8.80;;;;;;;5.44;59.24;100916.47;5081729;28;20536;-70
2022/04/18 02:00:52;;;;;;;10.60;8.60;;;;;;;5.40;59.07;100915.81;5079603;28;20498;-70
2022/04/18 02:03:19;;;;;;;15.37;9.07;;;;;;;5.44;58.84;100911.19;5081637;28;21000;-70
2022/04/18 02:05:47;;;;;;;10.13;7.90;;;;;;;5.51;57.94;100909.84;5080853;28;20464;-69
2022/04/18 02:08:13;;;;;;;11.73;8.97;;;;;;;5.68;56.98;100906.19;5080873;28;20444;-68
2022/04/18 02:10:41;;;;;;;14.20;8.63;;;;;;;5.75;56.64;100907.53;5079795;28;20495;-71
2022/04/18 02:13:09;;;;;;;9.63;7.60;;;;;;;5.87;56.36;100910.38;5080352;28;20482;-69
2022/04/18 02:15:35;;;;;;;11.37;8.70;;;;;;;5.79;55.73;100906.38;5079725;28;20476;-69
2022/04/18 02:18:02;;;;;;;11.87;8.00;;;;;;;5.88;55.46;100902.31;5081012;28;20486;-69
2022/04/18 02:20:28;;;;;;;10.40;7.37;;;;;;;5.81;55.38;100906.28;5080018;28;21021;-68
2022/04/18 02:22:55;;;;;;;12.20;8.10;;;;;;;5.91;55.35;100909.25;5080440;28;20829;-68
2022/04/18 02:25:22;;;;;;;10.10;7.67;;;;;;;5.91;55.55;100903.94;5080592;28;20468;-70
2022/04/18 02:27:51;;;;;;;8.83;7.53;;;;;;;5.81;55.95;100898.34;5080832;28;20483;-69
2022/04/18 02:30:18;;;;;;;9.60;8.33;;;;;;;5.80;56.10;100894.84;5079044;28;20479;-69
2022/04/18 02:32:51;;;;;;;10.50;8.90;;;;;;;5.72;56.45;100890.94;5080150;28;21060;-68
2022/04/18 02:35:19;;;;;;;9.20;8.00;;;;;;;5.81;56.32;100893.88;5080053;28;20535;-69
2022/04/18 02:37:45;;;;;;;10.17;7.60;;;;;;;5.74;56.31;100887.25;5080808;28;20555;-68
2022/04/18 02:40:13;;;;;;;11.67;8.23;;;;;;;5.78;56.30;100879.94;5079217;28;20966;-69
2022/04/18 02:42:40;;;;;;;9.27;7.27;;;;;;;5.78;56.71;100869.31;5080092;28;20813;-69
2022/04/18 02:45:09;;;;;;;9.30;8.07;;;;;;;5.70;57.00;100863.66;5078864;28;20484;-69
2022/04/18 02:47:36;;;;;;;9.10;7.73;;;;;;;5.64;56.86;100871.06;5080428;28;20469;-69
2022/04/18 02:50:03;;;;;;;10.93;8.53;;;;;;;5.56;57.34;100868.00;5080220;28;20563;-69
2022/04/18 02:52:29;;;;;;;12.73;8.03;;;;;;;5.42;58.13;100860.03;5079024;28;20512;-69
2022/04/18 02:54:56;;;;;;;9.87;8.80;;;;;;;5.23;58.95;100858.47;5080870;28;20534;-68
2022/04/18 02:57:23;;;;;;;9.70;8.13;;;;;;;5.08;60.03;100854.91;5079681;28;20940;-68
2022/04/18 02:59:49;;;;;;;9.33;8.33;;;;;;;5.01;60.72;100847.44;5078305;28;20791;-68
2022/04/18 03:02:17;;;;;;;12.63;9.10;;;;;;;4.88;61.89;100845.50;5079468;28;20547;-68
2022/04/18 03:04:44;;;;;;;9.90;8.47;;;;;;;4.83;62.44;100846.72;5080146;28;20468;-68
2022/04/18 03:07:10;;;;;;;10.43;9.10;;;;;;;4.74;62.98;100847.22;5079438;28;20562;-68
2022/04/18 03:09:37;;;;;;;13.43;8.60;;;;;;;4.68;63.27;100848.44;5080571;28;20472;-68
2022/04/18 03:12:06;;;;;;;10.53;9.43;;;;;;;4.63;63.31;100847.84;5078383;28;20584;-69
2022/04/18 03:14:32;;;;;;;11.70;9.23;;;;;;;4.56;63.67;100842.06;5068976;28;20447;-69
2022/04/18 03:16:59;;;;;;;11.73;9.03;;;;;;;4.49;63.88;100833.59;5079215;28;20968;-69
2022/04/18 03:19:27;;;;;;;9.67;8.03;;;;;;;4.47;63.41;100842.59;5080088;28;20492;-69
2022/04/18 03:21:54;;;;;;;13.20;8.70;;;;;;;4.42;63.65;100837.53;5074849;28;20488;-69
2022/04/18 03:24:20;;;;;;;11.10;9.10;;;;;;;4.43;63.89;100836.63;5080617;28;20460;-69
2022/04/18 03:26:47;;;;;;;13.70;9.67;;;;;;;4.41;63.62;100832.34;5079183;28;20780;-68
2022/04/18 03:29:14;;;;;;;11.27;9.70;;;;;;;4.41;63.69;100833.22;5080434;28;21061;-69
2022/04/18 03:31:40;;;;;;;10.73;8.63;;;;;;;4.38;63.86;100835.19;5078447;28;20484;-68
2022/04/18 03:34:07;;;;;;;11.47;8.77;;;;;;;4.36;64.51;100840.56;5080299;28;20527;-69
2022/04/18 03:42:03;;;;;;;11.73;9.50;;;;;;;4.36;64.80;100837.03;5078943;28;20482;-68
2022/04/18 03:44:29;;;;;;;9.03;8.10;;;;;;;4.29;65.02;100842.69;5079221;28;20523;-69
2022/04/18 03:46:57;;;;;;;10.90;9.23;;;;;;;4.32;64.72;100834.59;5078377;28;20957;-68
2022/04/18 03:49:24;;;;;;;11.30;9.70;;;;;;;4.21;65.47;100833.47;5079033;28;20451;-68
2022/04/18 03:51:52;;;;;;;11.93;9.03;;;;;;;4.21;65.35;100833.47;5081776;28;21126;-69
2022/04/18 03:54:18;;;;;;;11.93;9.27;;;;;;;4.23;65.18;100824.47;5083612;28;20455;-68
2022/04/18 03:56:45;;;;;;;12.50;9.30;;;;;;;4.26;64.99;100823.47;5083233;28;20483;-68
2022/04/18 03:59:12;;;;;;;11.73;9.90;;;;;;;4.29;64.75;100831.25;5084350;28;20440;-68
2022/04/18 04:01:39;;;;;;;11.93;9.23;;;;;;;4.52;64.10;100828.13;5082278;28;20472;-68
2022/04/18 04:04:05;;;;;;;14.90;9.47;;;;;;;4.69;63.41;100826.34;5084091;28;20482;-69
2022/04/18 04:06:32;;;;;;;11.03;9.00;;;;;;;4.77;62.87;100831.19;5083143;28;20536;-68
2022/04/18 04:09:00;;;;;;;16.83;9.60;;;;;;;4.82;62.56;100826.47;5084353;28;20462;-69
2022/04/18 04:11:27;;;;;;;15.10;9.53;;;;;;;4.79;62.67;100832.81;5082928;28;20495;-67
2022/04/18 04:13:53;;;;;;;11.20;9.50;;;;;;;4.78;62.62;100832.91;5083162;28;20479;-68
2022/04/18 04:16:20;;;;;;;16.23;10.10;;;;;;;4.57;63.52;100835.84;5081602;28;20479;-67
2022/04/18 04:18:47;;;;;;;11.67;8.53;;;;;;;4.45;64.26;100834.72;5084125;28;20486;-67
2022/04/18 04:21:13;;;;;;;11.30;9.53;;;;;;;4.40;64.48;100833.28;5082872;28;20550;-67
2022/04/18 04:23:40;;;;;;;13.80;10.30;;;;;;;4.31;64.83;100830.22;5083352;28;20928;-67
2022/04/18 04:26:08;;;;;;;12.23;9.40;;;;;;;4.32;65.00;100825.75;5082185;28;20532;-68
2022/04/18 04:28:35;;;;;;;13.33;9.90;;;;;;;4.33;64.90;100828.31;5082808;28;20443;-68
2022/04/18 04:31:02;;;;;;;16.80;9.70;;;;;;;4.32;65.35;100821.34;5081363;28;20554;-67
2022/04/18 04:33:30;;;;;;;11.83;9.07;;;;;;;4.34;65.71;100823.91;5083339;28;20458;-67
2022/04/18 04:35:57;;;;;;;13.50;9.87;;;;;;;4.47;65.40;100827.53;5081710;28;20472;-67
2022/04/18 04:38:24;;;;;;;12.80;9.00;;;;;;;4.51;65.11;100826.44;5083439;28;20532;-68
2022/04/18 04:40:50;;;;;;;14.53;9.90;;;;;;;4.49;65.51;100828.31;5082766;28;20537;-68
2022/04/18 04:43:18;;;;;;;12.07;9.43;;;;;;;4.47;65.71;100827.53;5082350;28;20455;-67
2022/04/18 04:45:45;;;;;;;16.83;9.63;;;;;;;4.48;65.93;100825.78;5081876;28;20522;-68
2022/04/18 04:48:12;;;;;;;14.03;9.70;;;;;;;4.51;66.11;100826.44;5082856;28;20482;-67
2022/04/18 04:50:40;;;;;;;13.53;9.20;;;;;;;4.64;65.93;100828.38;5081797;28;20507;-68
2022/04/18 04:53:07;;;;;;;14.60;10.33;;;;;;;4.80;65.45;100823.91;5081385;28;20483;-67
2022/04/18 04:55:34;;;;;;;13.80;9.80;;;;;;;5.12;64.29;100831.78;5082153;28;20471;-68
2022/04/18 04:58:02;;;;;;;15.33;10.27;;;;;;;6.10;61.20;100816.09;5082801;28;20519;-68
2022/04/18 05:00:29;;;;;;;11.10;9.70;;;;;;;7.80;57.52;100819.72;5081144;28;20520;-67
2022/04/18 05:02:56;;;;;;;11.27;9.00;;;;;;;8.78;53.04;100825.06;5081615;28;20502;-68
2022/04/18 05:05:23;;;;;;;11.57;9.30;;;;;;;8.99;51.29;100821.75;5081334;28;20444;-68
2022/04/18 05:07:50;;;;;;;10.80;8.47;;;;;;;9.56;50.37;100820.88;5082850;28;20486;-68
2022/04/18 05:10:17;;;;;;;10.67;8.07;;;;;;;11.02;46.45;100810.88;5082204;28;20970;-68
2022/04/18 05:12:43;;;;;;;11.43;8.70;;;;;;;12.52;42.19;100813.97;5076570;28;20491;-69
2022/04/18 05:15:10;;;;;;;9.00;8.07;;;;;;;13.30;40.21;100816.63;5081377;28;20555;-68
2022/04/18 05:17:38;;;;;;;12.30;9.17;;;;;;;13.15;40.41;100813.53;5082161;28;20475;-69
2022/04/18 05:20:06;;;;;;;10.67;8.47;;;;;;;12.65;40.88;100817.19;5081879;28;20531;-68
2022/04/18 05:22:33;;;;;;;8.93;7.50;;;;;;;12.29;42.46;100807.97;5081316;28;20595;-69
2022/04/18 05:24:59;;;;;;;8.53;7.60;;;;;;;12.44;42.75;100810.13;5082456;28;20474;-69
2022/04/18 05:27:26;;;;;;;12.17;7.30;;;;;;;13.43;40.77;100809.09;5081258;28;20499;-69
2022/04/18 05:29:53;;;;;;;9.57;7.93;;;;;;;13.75;40.06;100806.03;5081244;28;20440;-69
2022/04/18 05:32:19;;;;;;;9.83;8.30;;;;;;;14.09;39.36;100809.97;5081334;28;20554;-68
2022/04/18 05:34:47;;;;;;;9.80;8.90;;;;;;;14.35;38.87;100810.09;5078443;28;20486;-69
2022/04/18 05:37:14;;;;;;;9.60;7.80;;;;;;;13.74;39.36;100811.56;5081024;28;20464;-69
2022/04/18 05:39:41;;;;;;;10.00;8.40;;;;;;;13.15;40.97;100814.38;5081745;28;20480;-68
2022/04/18 05:42:07;;;;;;;10.60;8.40;;;;;;;14.16;38.41;100810.22;5080695;28;20522;-70
2022/04/18 05:44:34;;;;;;;9.87;8.27;;;;;;;14.28;37.35;100801.78;5080475;28;20482;-69
2022/04/18 05:47:01;;;;;;;11.43;8.03;;;;;;;14.88;35.84;100805.78;5080182;28;20609;-68
2022/04/18 05:49:28;;;;;;;9.80;8.80;;;;;;;14.63;36.55;100808.25;5076031;28;20885;-67
2022/04/18 05:51:56;;;;;;;9.57;8.40;;;;;;;15.75;34.57;100814.84;5088312;28;20569;-67
2022/04/18 05:54:22;;;;;;;9.20;8.13;;;;;;;15.32;34.93;100813.88;5102256;28;20435;-67
2022/04/18 05:56:49;;;;;;;8.63;7.83;;;;;;;15.79;33.81;100809.97;5101216;28;20471;-67
2022/04/18 05:59:16;;;;;;;10.07;8.97;;;;;;;14.55;35.99;100815.34;5083820;28;20511;-68
2022/04/18 06:01:42;;;;;;;10.00;9.03;;;;;;;15.33;34.88;100812.88;5080176;28;20498;-68
2022/04/18 06:04:09;;;;;;;9.70;8.60;;;;;;;15.08;36.06;100811.84;5078324;28;21117;-68
2022/04/18 06:06:35;;;;;;;9.43;8.30;;;;;;;14.92;36.31;100817.09;5080127;28;20539;-68
2022/04/18 06:09:03;;;;;;;9.80;8.80;;;;;;;15.25;35.73;100815.50;5080983;28;20644;-68
2022/04/18 06:11:30;;;;;;;10.10;8.40;;;;;;;15.50;35.37;100810.28;5080156;28;20514;-69
2022/04/18 06:13:57;;;;;;;9.27;8.27;;;;;;;16.46;34.81;100810.03;5080838;28;20516;-69
2022/04/18 06:16:23;;;;;;;10.73;8.90;;;;;;;16.63;33.37;100816.31;5080089;28;20472;-69
2022/04/18 06:18:50;;;;;;;10.03;8.50;;;;;;;17.61;30.92;100810.03;5081105;28;20467;-68
2022/04/18 06:21:16;;;;;;;8.80;7.87;;;;;;;18.68;29.47;100808.72;5079846;28;20467;-68
2022/04/18 06:23:43;;;;;;;9.17;8.03;;;;;;;17.47;31.51;100818.88;5060748;28;21009;-68
2022/04/18 06:26:11;;;;;;;8.70;7.77;;;;;;;17.70;30.96;100818.97;5066628;28;20543;-69
2022/04/18 06:28:38;;;;;;;8.20;7.40;;;;;;;18.40;30.22;100820.94;5080552;28;21077;-68
2022/04/18 06:31:04;;;;;;;9.60;8.70;;;;;;;17.97;30.91;100822.31;5078646;28;20485;-67
2022/04/18 06:33:34;;;;;;;9.00;8.10;;;;;;;19.47;29.23;100819.25;5076634;28;20516;-68
2022/04/18 06:36:01;;;;;;;9.40;7.87;;;;;;;19.19;29.29;100822.56;5079466;28;20474;-68
2022/04/18 06:38:28;;;;;;;10.07;7.77;;;;;;;20.75;27.09;100817.19;5080653;28;20443;-68
2022/04/18 06:40:55;;;;;;;9.20;8.27;;;;;;;20.54;26.66;100826.16;5079057;28;20529;-69
2022/04/18 06:43:23;;;;;;;9.20;7.77;;;;;;;19.74;28.13;100824.09;5079779;28;20515;-68
2022/04/18 06:45:50;;;;;;;8.43;7.63;;;;;;;19.68;27.95;100815.81;5076258;28;20696;-69
2022/04/18 06:48:16;;;;;;;8.43;7.03;;;;;;;21.40;26.26;100816.09;5074524;28;20499;-69
2022/04/18 06:50:43;;;;;;;8.30;7.50;;;;;;;21.74;25.09;100819.06;5078545;28;20548;-69
2022/04/18 06:53:10;;;;;;;8.00;6.80;;;;;;;19.14;29.13;100825.81;5075789;28;21013;-69
2022/04/18 06:58:23;;;;;;;6.87;5.87;;;;;;;19.94;26.64;100821.63;5078837;28;20442;-69
2022/04/18 07:00:50;;;;;;;8.27;6.93;;;;;;;19.35;28.79;100813.44;5078977;28;20468;-69
2022/04/18 07:03:16;;;;;;;7.40;6.70;;;;;;;19.64;28.52;100814.53;5080198;28;20445;-69
2022/04/18 07:05:43;;;;;;;7.03;6.33;;;;;;;20.69;26.90;100805.19;5078738;28;20464;-69
2022/04/18 07:08:10;;;;;;;7.83;6.57;;;;;;;19.16;28.55;100812.94;5080054;28;20483;-69
2022/04/18 07:10:37;;;;;;;7.40;5.70;;;;;;;20.12;27.71;100813.13;5071657;28;20472;-69
2022/04/18 07:13:04;;;;;;;6.87;6.27;;;;;;;21.38;25.80;100812.72;5095051;28;20547;-69
2022/04/18 07:15:32;;;;;;;9.30;6.13;;;;;;;21.87;24.98;100813.66;5077714;28;20494;-68
2022/04/18 07:17:59;;;;;;;7.47;6.40;;;;;;;21.06;25.73;100823.13;5078794;28;20515;-68
2022/04/18 07:20:26;;;;;;;6.07;5.57;;;;;;;21.88;24.08;100822.69;5078816;28;20432;-68
2022/04/18 07:22:52;;;;;;;6.00;5.40;;;;;;;22.54;23.39;100816.69;5079299;28;20475;-68
2022/04/18 07:25:19;;;;;;;6.47;5.53;;;;;;;21.86;24.08;100822.91;5077763;28;20476;-67
2022/04/18 07:27:45;;;;;;;6.00;4.70;;;;;;;21.40;25.03;100826.97;5078745;28;20479;-68
2022/04/18 07:30:12;;;;;;;6.07;4.87;;;;;;;21.73;24.46;100826.34;5078458;28;20455;-68
2022/04/18 07:32:40;;;;;;;5.13;4.63;;;;;;;22.37;24.14;100821.69;5078449;28;20523;-68
2022/04/18 07:35:09;;;;;;;6.60;5.60;;;;;;;22.11;24.33;100817.75;5076379;28;20534;-68
2022/04/18 07:37:35;;;;;;;5.67;5.17;;;;;;;22.27;24.17;100813.91;5079447;28;20444;-68
2022/04/18 07:40:02;;;;;;;6.23;5.63;;;;;;;22.02;25.17;100821.72;5079584;28;20894;-68
2022/04/18 07:42:29;;;;;;;6.87;5.70;;;;;;;21.92;25.59;100816.63;5078529;28;20494;-68
2022/04/18 07:44:55;;;;;;;6.40;4.60;;;;;;;22.50;24.44;100810.81;5073722;28;20439;-68
2022/04/18 07:47:22;;;;;;;6.90;5.90;;;;;;;21.52;26.59;100818.28;5078391;28;20510;-68
2022/04/18 07:49:50;;;;;;;6.20;5.13;;;;;;;21.59;26.15;100819.16;5079450;28;20535;-68
2022/04/18 07:52:16;;;;;;;6.03;4.63;;;;;;;22.92;24.84;100821.59;5077147;28;20511;-68
2022/04/18 07:54:43;;;;;;;5.37;4.87;;;;;;;21.48;26.35;100822.44;5078694;28;20476;-68
2022/04/18 07:57:10;;;;;;;4.90;4.50;;;;;;;21.73;26.31;100822.81;5074710;28;20543;-68
2022/04/18 07:59:37;;;;;;;5.77;5.10;;;;;;;20.85;27.49;100817.72;5081885;28;20579;-67
2022/04/18 08:02:08;;;;;;;8.10;5.03;;;;;;;22.73;24.46;100815.91;5076899;28;20921;-75
2022/04/18 08:04:38;;;;;;;7.10;4.87;;;;;;;22.54;24.53;100805.81;5094570;28;20447;-69
2022/04/18 08:07:07;;;;;;;6.47;4.60;;;;;;;23.08;23.47;100809.47;5096949;28;20549;-68
2022/04/18 08:09:34;;;;;;;6.13;4.83;;;;;;;22.43;24.71;100804.53;5081261;28;20445;-69
2022/04/18 08:12:00;;;;;;;5.30;4.63;;;;;;;23.47;23.42;100810.47;5077064;28;20579;-69
2022/04/18 08:14:27;;;;;;;5.70;5.20;;;;;;;22.90;24.30;100810.06;5077708;28;20448;-69
2022/04/18 08:16:54;;;;;;;5.63;4.33;;;;;;;21.74;25.70;100810.91;5095151;28;20471;-69
2022/04/18 08:19:21;;;;;;;5.13;4.70;;;;;;;24.21;22.63;100811.13;5098219;28;20427;-69
2022/04/18 08:21:47;;;;;;;5.80;4.83;;;;;;;22.73;23.77;100813.16;5097279;28;20478;-69
2022/04/18 08:24:16;;;;;;;5.03;3.57;;;;;;;23.58;22.84;100800.81;5098181;28;20458;-69
2022/04/18 08:26:45;;;;;;;5.27;4.20;;;;;;;24.29;22.03;100802.69;5096694;28;20462;-69
2022/04/18 08:29:12;;;;;;;4.63;4.03;;;;;;;23.69;23.41;100803.72;5074677;28;20459;-69
2022/04/18 08:31:39;;;;;;;5.30;4.73;;;;;;;23.33;23.23;100800.63;5069937;28;20508;-70
2022/04/18 08:34:05;;;;;;;4.20;3.80;;;;;;;22.65;24.54;100801.63;5078180;28;20468;-70
2022/04/18 08:36:33;;;;;;;5.50;3.50;;;;;;;24.12;21.51;100815.19;5070823;28;20856;-69
2022/04/18 08:39:00;;;;;;;3.23;2.93;;;;;;;23.31;21.41;100806.31;5073854;28;20471;-69
2022/04/18 08:41:33;;;;;;;4.90;3.30;;;;;;;25.21;20.25;100801.44;5076093;28;20542;-70
2022/04/18 08:44:00;;;;;;;3.90;3.27;;;;;;;26.12;20.45;100810.88;5066394;28;20467;-69
2022/04/18 08:46:27;;;;;;;4.20;3.80;;;;;;;24.30;20.72;100798.06;5077831;28;20510;-69
2022/04/18 08:54:26;;;;;;;4.10;3.23;;;;;;;24.24;20.34;100797.88;5101007;28;20450;-69
2022/04/18 08:56:54;;;;;;;4.93;3.67;;;;;;;24.07;20.93;100793.97;5095537;28;21222;-69
2022/04/18 08:59:20;;;;;;;3.50;3.20;;;;;;;25.04;19.40;100785.63;5080966;28;20467;-69
2022/04/18 09:01:50;;;;;;;4.13;3.20;;;;;;;25.32;20.13;100793.38;5062682;28;20507;-69
2022/04/18 09:04:17;;;;;;;3.60;3.30;;;;;;;23.83;21.79;100784.59;5061055;28;20461;-69
2022/04/18 09:06:43;;;;;;;5.73;3.63;;;;;;;24.00;22.37;100791.25;5059585;28;20555;-69
2022/04/18 09:09:10;;;;;;;4.97;3.80;;;;;;;23.87;21.91;100780.41;5060251;28;21009;-69
2022/04/18 09:11:37;;;;;;;10.23;3.23;;;;;;;25.37;20.38;100788.06;5059843;28;20543;-69
2022/04/18 09:14:06;;;;;;;3.50;3.20;;;;;;;24.52;21.41;100779.44;5066619;28;20448;-69
2022/04/18 09:16:33;;;;;;;5.73;3.67;;;;;;;24.44;21.88;100775.06;5078093;28;20584;-69
2022/04/18 09:19:05;;;;;;;3.87;3.40;;;;;;;23.45;22.72;100771.66;5080146;28;20954;-69
2022/04/18 09:21:31;;;;;;;3.73;3.30;;;;;;;24.17;22.23;100771.66;5079793;28;20482;-69
2022/04/18 09:23:58;;;;;;;4.20;3.60;;;;;;;24.09;21.40;100770.00;5080187;28;20490;-69
2022/04/18 09:26:25;;;;;;;4.90;4.03;;;;;;;24.42;21.05;100777.19;5079058;28;20543;-68
2022/04/18 09:28:51;;;;;;;4.20;3.47;;;;;;;23.85;22.16;100771.56;5080358;28;20520;-68
2022/04/18 09:31:20;;;;;;;4.87;3.70;;;;;;;23.21;22.34;100760.38;5078712;28;20506;-68
2022/04/18 09:33:54;;;;;;;4.20;3.33;;;;;;;23.02;22.92;100762.03;5079928;28;20542;-69
2022/04/18 09:36:22;;;;;;;3.43;3.13;;;;;;;24.35;20.98;100762.72;5078757;28;20522;-68
2022/04/18 09:38:50;;;;;;;4.67;3.30;;;;;;;23.50;22.94;100761.78;5079294;28;20458;-69
2022/04/18 09:41:21;;;;;;;3.80;3.30;;;;;;;22.68;22.55;100754.88;5079546;28;20503;-69
2022/04/18 09:43:49;;;;;;;3.60;3.13;;;;;;;23.03;22.85;100757.41;5079609;28;20448;-68
2022/04/18 09:46:17;;;;;;;3.97;3.20;;;;;;;23.08;22.70;100758.47;5077802;28;20543;-69
2022/04/18 09:48:46;;;;;;;3.77;3.37;;;;;;;23.90;21.84;100752.66;5078740;28;20479;-68
2022/04/18 09:51:13;;;;;;;4.57;3.20;;;;;;;24.89;20.93;100746.81;5078783;28;20491;-69
2022/04/18 09:53:41;;;;;;;3.93;3.27;;;;;;;24.01;20.89;100742.97;5099380;28;20510;-69
2022/04/18 09:56:08;;;;;;;3.27;2.70;;;;;;;23.97;20.81;100742.53;5099657;28;20496;-69
2022/04/18 09:58:36;;;;;;;3.70;2.93;;;;;;;24.48;21.26;100745.41;5077589;28;20456;-69
2022/04/18 10:01:06;;;;;;;4.00;2.50;;;;;;;24.72;20.63;100738.31;5077996;28;20527;-69
2022/04/18 10:03:34;;;;;;;3.23;2.63;;;;;;;24.93;19.73;100737.94;5079033;28;20488;-69
2022/04/18 10:06:03;;;;;;;3.50;3.20;;;;;;;23.04;22.13;100734.56;5078094;28;20543;-69
2022/04/18 10:08:31;;;;;;;4.77;2.67;;;;;;;24.48;20.15;100735.31;5078562;28;20483;-70
2022/04/18 10:10:58;;;;;;;3.83;3.10;;;;;;;24.12;21.50;100731.31;5078986;28;20542;-69
2022/04/18 10:13:25;;;;;;;3.53;2.77;;;;;;;22.83;22.00;100724.69;5077764;28;20858;-69
2022/04/18 10:15:52;;;;;;;3.07;2.80;;;;;;;23.28;21.42;100716.72;5075640;28;20480;-69
2022/04/18 10:18:19;;;;;;;4.87;2.90;;;;;;;24.41;20.40;100718.13;5077907;28;20835;-69
2022/04/18 10:20:54;;;;;;;2.70;2.37;;;;;;;23.41;20.70;100724.03;5078203;28;20699;-70
2022/04/18 10:23:57;;;;;;;3.13;2.60;;;;;;;24.02;20.82;100711.84;5078175;28;20451;-70
2022/04/18 10:27:03;;;;;;;3.80;2.80;;;;;;;23.57;19.86;100718.09;5068186;28;20494;-70
2022/04/18 10:29:33;;;;;;;2.93;2.47;;;;;;;23.08;21.07;100709.38;5077520;28;20539;-70
2022/04/18 10:32:03;;;;;;;7.23;2.30;;;;;;;23.16;21.13;100711.06;5077162;28;20674;-69
2022/04/18 10:34:31;;;;;;;2.70;2.40;;;;;;;23.11;20.49;100714.44;5076891;28;20472;-69
2022/04/18 10:37:01;;;;;;;4.03;2.33;;;;;;;22.30;21.20;100698.25;5075439;28;20617;-69
2022/04/18 10:39:33;;;;;;;2.63;1.97;;;;;;;23.30;20.86;100701.78;5077911;28;20698;-69
2022/04/18 10:42:18;;;;;;;2.70;1.90;;;;;;;23.19;19.29;100696.97;5077750;28;20762;-69
2022/04/18 10:44:59;;;;;;;2.30;2.10;;;;;;;23.84;19.92;100691.56;5078014;28;20547;-70
2022/04/18 10:47:26;;;;;;;3.77;2.70;;;;;;;22.32;20.51;100687.97;5076709;28;21011;-69
2022/04/18 10:50:18;;;;;;;4.00;2.10;;;;;;;23.63;20.45;100681.75;5077528;28;20411;-69
2022/04/18 10:53:07;;;;;;;2.83;2.37;;;;;;;23.04;20.31;100686.28;5068311;28;20484;-69
2022/04/18 10:55:33;;;;;;;3.60;2.60;;;;;;;22.40;20.95;100685.06;5077679;28;20491;-69
2022/04/18 10:58:10;;;;;;;2.50;2.23;;;;;;;22.96;20.73;100682.94;5075778;28;20475;-69
2022/04/18 11:00:48;;;;;;;3.93;2.50;;;;;;;22.18;20.89;100676.19;5077531;28;20503;-69
2022/04/18 11:03:14;;;;;;;3.73;2.30;;;;;;;23.24;20.07;100679.97;5077724;28;20585;-69
2022/04/18 11:05:41;;;;;;;2.73;2.53;;;;;;;23.00;19.50;100676.00;5076796;28;20564;-70
2022/04/18 11:08:23;;;;;;;3.23;2.37;;;;;;;23.16;21.20;100672.88;5077481;28;20468;-69
2022/04/18 11:10:50;;;;;;;3.03;2.50;;;;;;;23.03;19.99;100667.41;5077168;28;20479;-69
2022/04/18 11:13:16;;;;;;;2.43;2.13;;;;;;;22.73;21.58;100668.69;5076782;28;20551;-70
2022/04/18 11:15:43;;;;;;;3.40;2.17;;;;;;;22.51;22.23;100662.63;5076449;28;20491;-70
2022/04/18 11:18:28;;;;;;;3.17;2.30;;;;;;;23.57;20.80;100663.50;5076265;28;20491;-69
2022/04/18 11:20:54;;;;;;;2.60;2.07;;;;;;;23.58;19.84;100658.91;5075639;28;20487;-69
2022/04/18 11:23:22;;;;;;;4.57;2.80;;;;;;;24.70;19.37;100659.25;5077086;28;20523;-70
2022/04/18 11:25:50;;;;;;;3.40;2.57;;;;;;;22.78;20.45;100659.91;5076059;28;20546;-71
2022/04/18 11:28:17;;;;;;;2.90;2.50;;;;;;;21.81;21.31;100662.91;5076095;28;20455;-69
2022/04/18 11:30:44;;;;;;;3.60;2.63;;;;;;;22.43;20.69;100662.84;5076051;28;20710;-69
2022/04/18 11:33:12;;;;;;;2.80;2.50;;;;;;;21.57;21.28;100647.13;5077245;28;20582;-69
2022/04/18 11:35:38;;;;;;;3.03;2.33;;;;;;;22.10;21.47;100650.00;5075499;28;20552;-69
2022/04/18 11:38:08;;;;;;;4.30;2.60;;;;;;;21.41;21.92;100640.94;5076021;28;20475;-69
2022/04/18 11:40:37;;;;;;;2.50;2.30;;;;;;;22.58;20.34;100643.56;5068468;28;20775;-69
2022/04/18 11:43:11;;;;;;;2.37;2.00;;;;;;;22.93;20.66;100646.03;5076581;28;20930;-69
2022/04/18 11:45:37;;;;;;;2.50;1.90;;;;;;;22.87;19.89;100642.28;5096938;28;20467;-69